sensor_id;sensor_type;location;lat;lon;timestamp;temperature;humidity
64718;DHT22;62506;46.070;14.492;2023-05-07T00:01:47;23.10;58.00
64718;DHT22;62506;46.070;14.492;2023-05-07T00:04:12;23.10;57.90
64718;DHT22;62506;46.070;14.492;2023-05-07T00:06:38;23.10;57.90
64718;DHT22;62506;46.070;14.492;2023-05-07T00:09:04;23.10;57.90
64718;DHT22;62506;46.070;14.492;2023-05-07T00:11:29;23.10;57.80
64718;DHT22;62506;46.070;14.492;2023-05-07T00:13:55;23.10;57.90
64718;DHT22;62506;46.070;14.492;2023-05-07T00:16:20;23.10;57.80
64718;DHT22;62506;46.070;14.492;2023-05-07T00:18:46;23.10;57.80
64718;DHT22;62506;46.070;14.492;2023-05-07T00:21:11;23.10;57.90
64718;DHT22;62506;46.070;14.492;2023-05-07T00:23:37;23.10;57.80
64718;DHT22;62506;46.070;14.492;2023-05-07T00:26:03;23.10;57.80
64718;DHT22;62506;46.070;14.492;2023-05-07T00:28:28;23.10;57.80
64718;DHT22;62506;46.070;14.492;2023-05-07T00:30:54;23.10;57.80
64718;DHT22;62506;46.070;14.492;2023-05-07T00:33:19;23.10;57.80
64718;DHT22;62506;46.070;14.492;2023-05-07T00:35:46;23.10;57.80
64718;DHT22;62506;46.070;14.492;2023-05-07T00:38:11;23.10;57.80
64718;DHT22;62506;46.070;14.492;2023-05-07T00:40:37;23.10;57.90
64718;DHT22;62506;46.070;14.492;2023-05-07T00:43:02;23.10;57.80
64718;DHT22;62506;46.070;14.492;2023-05-07T00:45:28;23.10;58.50
64718;DHT22;62506;46.070;14.492;2023-05-07T00:47:54;23.10;57.80
64718;DHT22;62506;46.070;14.492;2023-05-07T00:50:20;23.10;57.80
64718;DHT22;62506;46.070;14.492;2023-05-07T00:52:46;23.10;57.90
64718;DHT22;62506;46.070;14.492;2023-05-07T00:55:11;23.10;57.90
64718;DHT22;62506;46.070;14.492;2023-05-07T00:57:40;23.10;58.10
64718;DHT22;62506;46.070;14.492;2023-05-07T01:00:06;23.10;58.10
64718;DHT22;62506;46.070;14.492;2023-05-07T01:02:34;23.10;58.10
64718;DHT22;62506;46.070;14.492;2023-05-07T01:05:00;23.10;58.80
64718;DHT22;62506;46.070;14.492;2023-05-07T01:07:26;23.10;58.10
64718;DHT22;62506;46.070;14.492;2023-05-07T01:09:51;23.00;58.10
64718;DHT22;62506;46.070;14.492;2023-05-07T01:12:17;23.00;58.10
64718;DHT22;62506;46.070;14.492;2023-05-07T01:14:43;23.00;58.10
64718;DHT22;62506;46.070;14.492;2023-05-07T01:17:08;23.00;58.10
64718;DHT22;62506;46.070;14.492;2023-05-07T01:19:34;23.00;58.10
64718;DHT22;62506;46.070;14.492;2023-05-07T01:22:04;23.00;58.10
64718;DHT22;62506;46.070;14.492;2023-05-07T01:24:32;23.00;58.20
64718;DHT22;62506;46.070;14.492;2023-05-07T01:26:58;23.00;58.10
64718;DHT22;62506;46.070;14.492;2023-05-07T01:29:23;23.00;58.30
64718;DHT22;62506;46.070;14.492;2023-05-07T01:31:49;23.00;58.20
64718;DHT22;62506;46.070;14.492;2023-05-07T01:34:15;23.00;58.20
64718;DHT22;62506;46.070;14.492;2023-05-07T01:36:42;23.00;58.20
64718;DHT22;62506;46.070;14.492;2023-05-07T01:39:08;23.00;58.20
64718;DHT22;62506;46.070;14.492;2023-05-07T01:41:34;23.00;58.20
64718;DHT22;62506;46.070;14.492;2023-05-07T01:44:00;23.00;58.20
64718;DHT22;62506;46.070;14.492;2023-05-07T01:46:26;23.00;58.20
64718;DHT22;62506;46.070;14.492;2023-05-07T01:48:51;23.00;58.10
64718;DHT22;62506;46.070;14.492;2023-05-07T01:51:17;23.00;58.20
64718;DHT22;62506;46.070;14.492;2023-05-07T01:53:42;23.00;58.10
64718;DHT22;62506;46.070;14.492;2023-05-07T01:56:09;23.00;58.10
64718;DHT22;62506;46.070;14.492;2023-05-07T01:58:34;23.00;58.20
64718;DHT22;62506;46.070;14.492;2023-05-07T02:01:00;23.00;58.10
64718;DHT22;62506;46.070;14.492;2023-05-07T02:03:25;23.00;58.10
64718;DHT22;62506;46.070;14.492;2023-05-07T02:05:51;23.00;58.10
64718;DHT22;62506;46.070;14.492;2023-05-07T02:08:16;23.00;58.10
64718;DHT22;62506;46.070;14.492;2023-05-07T02:10:42;23.00;58.20
64718;DHT22;62506;46.070;14.492;2023-05-07T02:13:07;23.00;58.10
64718;DHT22;62506;46.070;14.492;2023-05-07T02:15:33;23.00;58.20
64718;DHT22;62506;46.070;14.492;2023-05-07T02:18:05;23.00;58.20
64718;DHT22;62506;46.070;14.492;2023-05-07T02:20:34;23.00;58.20
64718;DHT22;62506;46.070;14.492;2023-05-07T02:23:00;23.00;58.20
64718;DHT22;62506;46.070;14.492;2023-05-07T02:25:25;23.00;58.20
64718;DHT22;62506;46.070;14.492;2023-05-07T02:27:51;23.00;58.20
64718;DHT22;62506;46.070;14.492;2023-05-07T02:30:16;23.00;58.30
64718;DHT22;62506;46.070;14.492;2023-05-07T02:32:42;23.00;58.10
64718;DHT22;62506;46.070;14.492;2023-05-07T02:35:07;23.00;58.10
64718;DHT22;62506;46.070;14.492;2023-05-07T02:37:33;23.00;58.10
64718;DHT22;62506;46.070;14.492;2023-05-07T02:39:58;23.00;58.10
64718;DHT22;62506;46.070;14.492;2023-05-07T02:42:24;23.00;58.20
64718;DHT22;62506;46.070;14.492;2023-05-07T02:44:49;23.00;58.10
64718;DHT22;62506;46.070;14.492;2023-05-07T02:47:15;23.00;58.00
64718;DHT22;62506;46.070;14.492;2023-05-07T02:49:40;23.00;58.00
64718;DHT22;62506;46.070;14.492;2023-05-07T02:52:06;23.00;58.10
64718;DHT22;62506;46.070;14.492;2023-05-07T02:54:31;23.00;58.10
64718;DHT22;62506;46.070;14.492;2023-05-07T02:56:57;23.00;58.00
64718;DHT22;62506;46.070;14.492;2023-05-07T02:59:23;23.00;58.00
64718;DHT22;62506;46.070;14.492;2023-05-07T03:01:48;23.00;57.90
64718;DHT22;62506;46.070;14.492;2023-05-07T03:04:14;23.00;58.10
64718;DHT22;62506;46.070;14.492;2023-05-07T03:06:39;23.00;58.00
64718;DHT22;62506;46.070;14.492;2023-05-07T03:09:05;23.00;58.10
64718;DHT22;62506;46.070;14.492;2023-05-07T03:11:30;23.00;58.00
64718;DHT22;62506;46.070;14.492;2023-05-07T03:13:56;23.00;58.10
64718;DHT22;62506;46.070;14.492;2023-05-07T03:16:21;23.00;58.00
64718;DHT22;62506;46.070;14.492;2023-05-07T03:18:47;23.00;58.10
64718;DHT22;62506;46.070;14.492;2023-05-07T03:21:12;23.00;58.00
64718;DHT22;62506;46.070;14.492;2023-05-07T03:23:38;23.00;58.20
64718;DHT22;62506;46.070;14.492;2023-05-07T03:26:03;22.90;58.10
64718;DHT22;62506;46.070;14.492;2023-05-07T03:28:29;23.00;58.80
64718;DHT22;62506;46.070;14.492;2023-05-07T03:30:54;22.90;58.10
64718;DHT22;62506;46.070;14.492;2023-05-07T03:33:20;22.90;58.10
64718;DHT22;62506;46.070;14.492;2023-05-07T03:35:45;22.90;58.10
64718;DHT22;62506;46.070;14.492;2023-05-07T03:38:11;22.90;58.20
64718;DHT22;62506;46.070;14.492;2023-05-07T03:40:36;22.90;58.20
64718;DHT22;62506;46.070;14.492;2023-05-07T03:43:02;22.90;58.20
64718;DHT22;62506;46.070;14.492;2023-05-07T03:45:27;22.90;58.20
64718;DHT22;62506;46.070;14.492;2023-05-07T03:47:53;22.90;58.30
64718;DHT22;62506;46.070;14.492;2023-05-07T03:50:19;22.90;58.20
64718;DHT22;62506;46.070;14.492;2023-05-07T03:52:44;22.90;58.30
64718;DHT22;62506;46.070;14.492;2023-05-07T03:55:10;22.90;58.30
64718;DHT22;62506;46.070;14.492;2023-05-07T03:57:35;22.90;58.20
64718;DHT22;62506;46.070;14.492;2023-05-07T04:00:01;22.90;58.30
64718;DHT22;62506;46.070;14.492;2023-05-07T04:02:27;22.90;58.30
64718;DHT22;62506;46.070;14.492;2023-05-07T04:04:52;22.90;58.40
64718;DHT22;62506;46.070;14.492;2023-05-07T04:07:18;22.90;58.20
64718;DHT22;62506;46.070;14.492;2023-05-07T04:09:43;22.90;58.20
64718;DHT22;62506;46.070;14.492;2023-05-07T04:12:09;22.90;58.20
64718;DHT22;62506;46.070;14.492;2023-05-07T04:14:34;22.90;58.20
64718;DHT22;62506;46.070;14.492;2023-05-07T04:17:00;22.90;58.20
64718;DHT22;62506;46.070;14.492;2023-05-07T04:19:25;22.90;58.20
64718;DHT22;62506;46.070;14.492;2023-05-07T04:21:51;22.90;58.80
64718;DHT22;62506;46.070;14.492;2023-05-07T04:24:16;22.90;58.00
64718;DHT22;62506;46.070;14.492;2023-05-07T04:26:42;22.90;58.00
64718;DHT22;62506;46.070;14.492;2023-05-07T04:29:07;22.90;58.00
64718;DHT22;62506;46.070;14.492;2023-05-07T04:31:33;22.90;58.00
64718;DHT22;62506;46.070;14.492;2023-05-07T04:33:58;22.90;58.10
64718;DHT22;62506;46.070;14.492;2023-05-07T04:36:24;22.90;58.00
64718;DHT22;62506;46.070;14.492;2023-05-07T04:38:53;22.90;58.00
64718;DHT22;62506;46.070;14.492;2023-05-07T04:41:18;22.90;58.10
64718;DHT22;62506;46.070;14.492;2023-05-07T04:43:44;22.90;58.20
64718;DHT22;62506;46.070;14.492;2023-05-07T04:46:09;22.90;58.30
64718;DHT22;62506;46.070;14.492;2023-05-07T04:48:35;22.90;58.10
64718;DHT22;62506;46.070;14.492;2023-05-07T04:51:00;22.90;58.20
64718;DHT22;62506;46.070;14.492;2023-05-07T04:53:26;22.90;58.20
64718;DHT22;62506;46.070;14.492;2023-05-07T04:55:55;22.90;58.10
64718;DHT22;62506;46.070;14.492;2023-05-07T04:58:21;22.90;58.10
64718;DHT22;62506;46.070;14.492;2023-05-07T05:00:46;22.90;58.10
64718;DHT22;62506;46.070;14.492;2023-05-07T05:03:12;22.90;58.00
64718;DHT22;62506;46.070;14.492;2023-05-07T05:05:37;22.90;58.00
64718;DHT22;62506;46.070;14.492;2023-05-07T05:08:03;22.90;58.00
64718;DHT22;62506;46.070;14.492;2023-05-07T05:10:28;23.00;57.90
64718;DHT22;62506;46.070;14.492;2023-05-07T05:12:54;23.00;58.70
64718;DHT22;62506;46.070;14.492;2023-05-07T05:15:19;23.00;57.90
64718;DHT22;62506;46.070;14.492;2023-05-07T05:17:45;23.00;57.90
64718;DHT22;62506;46.070;14.492;2023-05-07T05:20:10;23.00;57.90
64718;DHT22;62506;46.070;14.492;2023-05-07T05:22:37;23.00;57.90
64718;DHT22;62506;46.070;14.492;2023-05-07T05:25:02;23.00;57.80
64718;DHT22;62506;46.070;14.492;2023-05-07T05:27:28;23.00;57.80
64718;DHT22;62506;46.070;14.492;2023-05-07T05:29:53;23.00;57.80
64718;DHT22;62506;46.070;14.492;2023-05-07T05:32:19;23.00;57.80
64718;DHT22;62506;46.070;14.492;2023-05-07T05:34:45;23.00;57.80
64718;DHT22;62506;46.070;14.492;2023-05-07T05:37:10;23.00;57.70
64718;DHT22;62506;46.070;14.492;2023-05-07T05:39:36;23.00;57.90
64718;DHT22;62506;46.070;14.492;2023-05-07T05:42:02;23.00;57.80
64718;DHT22;62506;46.070;14.492;2023-05-07T05:44:27;23.10;58.00
64718;DHT22;62506;46.070;14.492;2023-05-07T05:46:53;23.10;58.10
64718;DHT22;62506;46.070;14.492;2023-05-07T05:49:20;23.10;58.20
64718;DHT22;62506;46.070;14.492;2023-05-07T05:51:46;23.10;58.20
64718;DHT22;62506;46.070;14.492;2023-05-07T05:54:11;23.10;58.20
64718;DHT22;62506;46.070;14.492;2023-05-07T05:56:37;23.10;58.20
64718;DHT22;62506;46.070;14.492;2023-05-07T05:59:03;23.20;58.20
64718;DHT22;62506;46.070;14.492;2023-05-07T06:01:28;23.20;58.20
64718;DHT22;62506;46.070;14.492;2023-05-07T06:03:54;23.20;58.20
64718;DHT22;62506;46.070;14.492;2023-05-07T06:06:20;23.20;58.10
64718;DHT22;62506;46.070;14.492;2023-05-07T06:08:45;23.20;58.10
64718;DHT22;62506;46.070;14.492;2023-05-07T06:11:11;23.20;58.10
64718;DHT22;62506;46.070;14.492;2023-05-07T06:13:36;23.20;58.00
64718;DHT22;62506;46.070;14.492;2023-05-07T06:16:02;23.20;58.10
64718;DHT22;62506;46.070;14.492;2023-05-07T06:18:27;23.30;57.80
64718;DHT22;62506;46.070;14.492;2023-05-07T06:20:53;23.30;57.50
64718;DHT22;62506;46.070;14.492;2023-05-07T06:23:18;23.20;57.70
64718;DHT22;62506;46.070;14.492;2023-05-07T06:25:50;23.20;57.80
64718;DHT22;62506;46.070;14.492;2023-05-07T06:28:16;23.30;57.90
64718;DHT22;62506;46.070;14.492;2023-05-07T06:30:41;23.30;57.90
64718;DHT22;62506;46.070;14.492;2023-05-07T06:33:07;23.30;57.90
64718;DHT22;62506;46.070;14.492;2023-05-07T06:35:32;23.30;58.00
64718;DHT22;62506;46.070;14.492;2023-05-07T06:37:58;23.40;57.90
64718;DHT22;62506;46.070;14.492;2023-05-07T06:40:23;23.40;57.90
64718;DHT22;62506;46.070;14.492;2023-05-07T06:42:49;23.40;57.90
64718;DHT22;62506;46.070;14.492;2023-05-07T06:45:14;23.40;58.00
64718;DHT22;62506;46.070;14.492;2023-05-07T06:47:40;23.40;57.90
64718;DHT22;62506;46.070;14.492;2023-05-07T06:50:05;23.40;57.90
64718;DHT22;62506;46.070;14.492;2023-05-07T06:52:31;23.40;57.90
64718;DHT22;62506;46.070;14.492;2023-05-07T06:54:57;23.40;57.20
64718;DHT22;62506;46.070;14.492;2023-05-07T06:57:23;23.40;57.30
64718;DHT22;62506;46.070;14.492;2023-05-07T06:59:49;23.40;57.20
64718;DHT22;62506;46.070;14.492;2023-05-07T07:02:14;23.50;57.30
64718;DHT22;62506;46.070;14.492;2023-05-07T07:04:40;23.50;57.30
64718;DHT22;62506;46.070;14.492;2023-05-07T07:07:07;23.40;57.50
64718;DHT22;62506;46.070;14.492;2023-05-07T07:09:32;23.40;57.50
64718;DHT22;62506;46.070;14.492;2023-05-07T07:11:58;23.40;57.50
64718;DHT22;62506;46.070;14.492;2023-05-07T07:14:23;23.40;57.50
64718;DHT22;62506;46.070;14.492;2023-05-07T07:16:49;23.40;57.60
64718;DHT22;62506;46.070;14.492;2023-05-07T07:19:15;23.40;57.60
64718;DHT22;62506;46.070;14.492;2023-05-07T07:21:41;23.40;57.20
64718;DHT22;62506;46.070;14.492;2023-05-07T07:24:06;23.40;57.30
64718;DHT22;62506;46.070;14.492;2023-05-07T07:26:32;23.40;57.80
64718;DHT22;62506;46.070;14.492;2023-05-07T07:28:57;23.30;57.60
64718;DHT22;62506;46.070;14.492;2023-05-07T07:31:23;23.40;57.50
64718;DHT22;62506;46.070;14.492;2023-05-07T07:33:48;23.40;57.30
64718;DHT22;62506;46.070;14.492;2023-05-07T07:36:15;23.40;57.60
64718;DHT22;62506;46.070;14.492;2023-05-07T07:38:41;23.40;57.80
64718;DHT22;62506;46.070;14.492;2023-05-07T07:41:07;23.40;57.90
64718;DHT22;62506;46.070;14.492;2023-05-07T07:43:33;23.40;57.80
64718;DHT22;62506;46.070;14.492;2023-05-07T07:45:58;23.40;57.90
64718;DHT22;62506;46.070;14.492;2023-05-07T07:48:24;23.40;57.90
64718;DHT22;62506;46.070;14.492;2023-05-07T07:50:50;23.40;57.90
64718;DHT22;62506;46.070;14.492;2023-05-07T07:53:16;23.40;57.90
64718;DHT22;62506;46.070;14.492;2023-05-07T07:55:41;23.40;57.90
64718;DHT22;62506;46.070;14.492;2023-05-07T07:58:07;23.40;57.90
64718;DHT22;62506;46.070;14.492;2023-05-07T08:00:33;23.40;57.90
64718;DHT22;62506;46.070;14.492;2023-05-07T08:02:58;23.50;58.60
64718;DHT22;62506;46.070;14.492;2023-05-07T08:05:24;23.50;58.10
64718;DHT22;62506;46.070;14.492;2023-05-07T08:07:50;23.50;57.80
64718;DHT22;62506;46.070;14.492;2023-05-07T08:10:17;23.50;57.90
64718;DHT22;62506;46.070;14.492;2023-05-07T08:12:49;23.50;58.00
64718;DHT22;62506;46.070;14.492;2023-05-07T08:15:15;23.50;57.90
64718;DHT22;62506;46.070;14.492;2023-05-07T08:17:40;23.50;57.80
64718;DHT22;62506;46.070;14.492;2023-05-07T08:20:06;23.50;57.80
64718;DHT22;62506;46.070;14.492;2023-05-07T08:22:33;23.60;58.20
64718;DHT22;62506;46.070;14.492;2023-05-07T08:24:59;23.60;57.90
64718;DHT22;62506;46.070;14.492;2023-05-07T08:27:25;23.50;58.00
64718;DHT22;62506;46.070;14.492;2023-05-07T08:29:51;23.50;57.90
64718;DHT22;62506;46.070;14.492;2023-05-07T08:32:16;23.50;58.00
64718;DHT22;62506;46.070;14.492;2023-05-07T08:34:42;23.50;58.10
64718;DHT22;62506;46.070;14.492;2023-05-07T08:37:07;23.50;57.50
64718;DHT22;62506;46.070;14.492;2023-05-07T08:39:33;23.40;55.20
64718;DHT22;62506;46.070;14.492;2023-05-07T08:42:00;23.30;54.30
64718;DHT22;62506;46.070;14.492;2023-05-07T08:44:27;23.30;53.60
64718;DHT22;62506;46.070;14.492;2023-05-07T08:46:53;23.20;53.50
64718;DHT22;62506;46.070;14.492;2023-05-07T08:49:21;23.20;53.80
64718;DHT22;62506;46.070;14.492;2023-05-07T08:51:46;23.20;53.60
64718;DHT22;62506;46.070;14.492;2023-05-07T08:54:12;23.20;53.70
64718;DHT22;62506;46.070;14.492;2023-05-07T08:56:41;23.10;52.70
64718;DHT22;62506;46.070;14.492;2023-05-07T08:59:06;23.10;51.80
64718;DHT22;62506;46.070;14.492;2023-05-07T09:01:32;23.00;51.90
64718;DHT22;62506;46.070;14.492;2023-05-07T09:03:58;23.10;52.20
64718;DHT22;62506;46.070;14.492;2023-05-07T09:06:23;23.10;52.30
64718;DHT22;62506;46.070;14.492;2023-05-07T09:08:49;23.10;52.20
64718;DHT22;62506;46.070;14.492;2023-05-07T09:11:16;23.10;52.50
64718;DHT22;62506;46.070;14.492;2023-05-07T09:13:42;23.10;52.60
64718;DHT22;62506;46.070;14.492;2023-05-07T09:16:11;23.10;52.20
64718;DHT22;62506;46.070;14.492;2023-05-07T09:18:41;23.10;51.80
64718;DHT22;62506;46.070;14.492;2023-05-07T09:21:09;23.00;51.60
64718;DHT22;62506;46.070;14.492;2023-05-07T09:23:35;23.00;51.80
64718;DHT22;62506;46.070;14.492;2023-05-07T09:26:00;23.00;51.70
64718;DHT22;62506;46.070;14.492;2023-05-07T09:28:27;23.00;52.10
64718;DHT22;62506;46.070;14.492;2023-05-07T09:30:52;23.00;52.10
64718;DHT22;62506;46.070;14.492;2023-05-07T09:33:18;23.00;52.20
64718;DHT22;62506;46.070;14.492;2023-05-07T09:35:43;23.10;52.40
64718;DHT22;62506;46.070;14.492;2023-05-07T09:38:09;23.10;52.70
64718;DHT22;62506;46.070;14.492;2023-05-07T09:40:35;23.10;52.80
64718;DHT22;62506;46.070;14.492;2023-05-07T09:43:10;23.10;53.50
64718;DHT22;62506;46.070;14.492;2023-05-07T09:45:37;23.10;52.10
64718;DHT22;62506;46.070;14.492;2023-05-07T09:48:04;23.10;52.10
64718;DHT22;62506;46.070;14.492;2023-05-07T09:50:32;23.10;52.60
64718;DHT22;62506;46.070;14.492;2023-05-07T09:52:59;23.10;52.20
64718;DHT22;62506;46.070;14.492;2023-05-07T09:55:25;23.20;52.00
64718;DHT22;62506;46.070;14.492;2023-05-07T09:57:51;23.10;52.00
64718;DHT22;62506;46.070;14.492;2023-05-07T10:00:20;23.10;51.40
64718;DHT22;62506;46.070;14.492;2023-05-07T10:02:50;23.10;51.50
64718;DHT22;62506;46.070;14.492;2023-05-07T10:05:20;23.20;51.80
64718;DHT22;62506;46.070;14.492;2023-05-07T10:07:46;23.20;52.20
64718;DHT22;62506;46.070;14.492;2023-05-07T10:10:12;23.20;52.30
64718;DHT22;62506;46.070;14.492;2023-05-07T10:12:38;23.20;52.30
64718;DHT22;62506;46.070;14.492;2023-05-07T10:15:10;23.30;52.00
64718;DHT22;62506;46.070;14.492;2023-05-07T10:17:37;23.30;51.80
64718;DHT22;62506;46.070;14.492;2023-05-07T10:20:03;23.30;51.60
64718;DHT22;62506;46.070;14.492;2023-05-07T10:22:30;23.30;51.90
64718;DHT22;62506;46.070;14.492;2023-05-07T10:24:58;23.30;52.20
64718;DHT22;62506;46.070;14.492;2023-05-07T10:27:24;23.30;52.30
64718;DHT22;62506;46.070;14.492;2023-05-07T10:29:58;23.30;52.30
64718;DHT22;62506;46.070;14.492;2023-05-07T10:34:53;23.40;52.40
64718;DHT22;62506;46.070;14.492;2023-05-07T10:37:23;23.40;51.80
64718;DHT22;62506;46.070;14.492;2023-05-07T10:39:49;23.40;51.40
64718;DHT22;62506;46.070;14.492;2023-05-07T10:42:15;23.40;51.50
64718;DHT22;62506;46.070;14.492;2023-05-07T10:44:40;23.50;51.80
64718;DHT22;62506;46.070;14.492;2023-05-07T10:47:10;23.40;52.10
64718;DHT22;62506;46.070;14.492;2023-05-07T10:49:36;23.50;51.90
64718;DHT22;62506;46.070;14.492;2023-05-07T10:52:18;23.50;51.90
64718;DHT22;62506;46.070;14.492;2023-05-07T10:54:44;23.50;52.30
64718;DHT22;62506;46.070;14.492;2023-05-07T10:59:54;23.50;51.80
64718;DHT22;62506;46.070;14.492;2023-05-07T11:02:20;23.50;51.70
64718;DHT22;62506;46.070;14.492;2023-05-07T11:07:35;23.50;51.70
64718;DHT22;62506;46.070;14.492;2023-05-07T11:10:01;23.50;51.40
64718;DHT22;62506;46.070;14.492;2023-05-07T11:15:06;23.50;52.10
64718;DHT22;62506;46.070;14.492;2023-05-07T11:17:32;23.50;52.30
64718;DHT22;62506;46.070;14.492;2023-05-07T11:20:00;23.60;51.50
64718;DHT22;62506;46.070;14.492;2023-05-07T11:25:02;23.60;52.30
64718;DHT22;62506;46.070;14.492;2023-05-07T11:27:27;23.60;52.40
64718;DHT22;62506;46.070;14.492;2023-05-07T11:29:53;23.60;52.60
64718;DHT22;62506;46.070;14.492;2023-05-07T11:32:22;23.60;52.90
64718;DHT22;62506;46.070;14.492;2023-05-07T11:34:51;23.60;53.00
64718;DHT22;62506;46.070;14.492;2023-05-07T11:37:17;23.60;53.00
64718;DHT22;62506;46.070;14.492;2023-05-07T11:39:43;23.60;53.40
64718;DHT22;62506;46.070;14.492;2023-05-07T11:44:52;23.60;53.60
64718;DHT22;62506;46.070;14.492;2023-05-07T11:47:18;23.70;53.90
64718;DHT22;62506;46.070;14.492;2023-05-07T11:49:47;23.70;54.00
64718;DHT22;62506;46.070;14.492;2023-05-07T11:52:13;23.70;54.30
64718;DHT22;62506;46.070;14.492;2023-05-07T11:54:39;23.70;54.30
64718;DHT22;62506;46.070;14.492;2023-05-07T11:57:05;23.70;54.90
64718;DHT22;62506;46.070;14.492;2023-05-07T11:59:37;23.70;55.30
64718;DHT22;62506;46.070;14.492;2023-05-07T12:02:03;23.70;55.50
64718;DHT22;62506;46.070;14.492;2023-05-07T12:04:29;23.70;55.70
64718;DHT22;62506;46.070;14.492;2023-05-07T12:06:55;23.70;55.80
64718;DHT22;62506;46.070;14.492;2023-05-07T12:09:23;23.70;56.50
64718;DHT22;62506;46.070;14.492;2023-05-07T12:11:49;23.70;56.70
64718;DHT22;62506;46.070;14.492;2023-05-07T12:14:14;23.70;56.90
64718;DHT22;62506;46.070;14.492;2023-05-07T12:16:41;23.70;57.40
64718;DHT22;62506;46.070;14.492;2023-05-07T12:19:07;23.70;57.20
64718;DHT22;62506;46.070;14.492;2023-05-07T12:21:34;23.70;57.30
64718;DHT22;62506;46.070;14.492;2023-05-07T12:24:01;23.70;57.50
64718;DHT22;62506;46.070;14.492;2023-05-07T12:26:26;23.70;57.50
64718;DHT22;62506;46.070;14.492;2023-05-07T12:28:52;23.70;57.50
64718;DHT22;62506;46.070;14.492;2023-05-07T12:31:17;23.70;57.50
64718;DHT22;62506;46.070;14.492;2023-05-07T12:33:43;23.80;57.60
64718;DHT22;62506;46.070;14.492;2023-05-07T12:36:08;23.80;57.50
64718;DHT22;62506;46.070;14.492;2023-05-07T12:38:37;23.80;57.50
64718;DHT22;62506;46.070;14.492;2023-05-07T12:41:04;23.80;57.50
64718;DHT22;62506;46.070;14.492;2023-05-07T12:43:30;23.80;57.50
64718;DHT22;62506;46.070;14.492;2023-05-07T12:45:57;23.80;57.50
64718;DHT22;62506;46.070;14.492;2023-05-07T12:48:23;23.80;57.40
64718;DHT22;62506;46.070;14.492;2023-05-07T12:50:49;23.90;57.60
64718;DHT22;62506;46.070;14.492;2023-05-07T12:53:15;23.80;57.60
64718;DHT22;62506;46.070;14.492;2023-05-07T12:55:41;23.90;57.60
64718;DHT22;62506;46.070;14.492;2023-05-07T12:58:08;23.90;57.60
64718;DHT22;62506;46.070;14.492;2023-05-07T13:00:39;23.90;57.60
64718;DHT22;62506;46.070;14.492;2023-05-07T13:03:05;23.90;57.30
64718;DHT22;62506;46.070;14.492;2023-05-07T13:05:31;23.90;57.60
64718;DHT22;62506;46.070;14.492;2023-05-07T13:07:57;23.90;57.60
64718;DHT22;62506;46.070;14.492;2023-05-07T13:10:23;23.90;57.70
64718;DHT22;62506;46.070;14.492;2023-05-07T13:12:49;23.90;57.60
64718;DHT22;62506;46.070;14.492;2023-05-07T13:15:15;23.90;57.60
64718;DHT22;62506;46.070;14.492;2023-05-07T13:17:41;23.90;57.60
64718;DHT22;62506;46.070;14.492;2023-05-07T13:20:07;23.90;57.50
64718;DHT22;62506;46.070;14.492;2023-05-07T13:22:41;23.90;57.60
64718;DHT22;62506;46.070;14.492;2023-05-07T13:25:07;23.90;57.50
64718;DHT22;62506;46.070;14.492;2023-05-07T13:27:35;23.90;57.50
64718;DHT22;62506;46.070;14.492;2023-05-07T13:30:03;23.80;57.60
64718;DHT22;62506;46.070;14.492;2023-05-07T13:32:28;23.80;57.60
64718;DHT22;62506;46.070;14.492;2023-05-07T13:34:55;23.80;57.60
64718;DHT22;62506;46.070;14.492;2023-05-07T13:37:21;23.80;57.60
64718;DHT22;62506;46.070;14.492;2023-05-07T13:39:46;23.80;57.70
64718;DHT22;62506;46.070;14.492;2023-05-07T13:42:11;23.80;57.60
64718;DHT22;62506;46.070;14.492;2023-05-07T13:44:37;23.80;57.70
64718;DHT22;62506;46.070;14.492;2023-05-07T13:47:02;23.80;57.70
64718;DHT22;62506;46.070;14.492;2023-05-07T13:49:28;23.80;57.70
64718;DHT22;62506;46.070;14.492;2023-05-07T13:51:53;23.80;57.70
64718;DHT22;62506;46.070;14.492;2023-05-07T13:54:19;23.80;57.60
64718;DHT22;62506;46.070;14.492;2023-05-07T13:56:45;23.80;57.60
64718;DHT22;62506;46.070;14.492;2023-05-07T13:59:10;23.80;57.70
64718;DHT22;62506;46.070;14.492;2023-05-07T14:01:36;23.90;57.70
64718;DHT22;62506;46.070;14.492;2023-05-07T14:04:01;23.90;57.70
64718;DHT22;62506;46.070;14.492;2023-05-07T14:06:26;23.90;57.70
64718;DHT22;62506;46.070;14.492;2023-05-07T14:08:53;23.90;57.60
64718;DHT22;62506;46.070;14.492;2023-05-07T14:11:19;23.90;57.70
64718;DHT22;62506;46.070;14.492;2023-05-07T14:13:44;23.90;57.70
64718;DHT22;62506;46.070;14.492;2023-05-07T14:16:10;23.90;57.60
64718;DHT22;62506;46.070;14.492;2023-05-07T14:18:35;24.00;57.70
64718;DHT22;62506;46.070;14.492;2023-05-07T14:21:02;23.90;57.70
64718;DHT22;62506;46.070;14.492;2023-05-07T14:23:27;23.90;57.70
64718;DHT22;62506;46.070;14.492;2023-05-07T14:25:53;24.00;57.80
64718;DHT22;62506;46.070;14.492;2023-05-07T14:28:19;23.90;57.60
64718;DHT22;62506;46.070;14.492;2023-05-07T14:30:44;23.90;57.70
64718;DHT22;62506;46.070;14.492;2023-05-07T14:33:10;24.00;57.80
64718;DHT22;62506;46.070;14.492;2023-05-07T14:35:35;24.00;57.80
64718;DHT22;62506;46.070;14.492;2023-05-07T14:38:01;24.00;57.70
64718;DHT22;62506;46.070;14.492;2023-05-07T14:40:27;24.00;58.00
64718;DHT22;62506;46.070;14.492;2023-05-07T14:42:52;24.00;57.90
64718;DHT22;62506;46.070;14.492;2023-05-07T14:45:18;24.00;57.90
64718;DHT22;62506;46.070;14.492;2023-05-07T14:47:43;24.00;57.80
64718;DHT22;62506;46.070;14.492;2023-05-07T14:50:09;24.00;57.80
64718;DHT22;62506;46.070;14.492;2023-05-07T14:52:34;24.00;57.80
64718;DHT22;62506;46.070;14.492;2023-05-07T14:55:00;24.00;57.90
64718;DHT22;62506;46.070;14.492;2023-05-07T14:57:25;24.00;57.90
64718;DHT22;62506;46.070;14.492;2023-05-07T14:59:51;24.00;57.80
64718;DHT22;62506;46.070;14.492;2023-05-07T15:02:16;24.00;57.90
64718;DHT22;62506;46.070;14.492;2023-05-07T15:04:42;24.00;58.00
64718;DHT22;62506;46.070;14.492;2023-05-07T15:07:11;24.00;58.10
64718;DHT22;62506;46.070;14.492;2023-05-07T15:09:37;24.00;57.80
64718;DHT22;62506;46.070;14.492;2023-05-07T15:12:02;24.00;57.70
64718;DHT22;62506;46.070;14.492;2023-05-07T15:14:29;24.00;57.70
64718;DHT22;62506;46.070;14.492;2023-05-07T15:16:54;24.00;57.80
64718;DHT22;62506;46.070;14.492;2023-05-07T15:19:20;24.00;57.80
64718;DHT22;62506;46.070;14.492;2023-05-07T15:21:47;24.00;57.90
64718;DHT22;62506;46.070;14.492;2023-05-07T15:24:13;24.00;57.90